Weather at Adnan Menderes International Airport

Public forecast

Using degrees Celsius for public forecast. Weather courtesy of forecast.io.

Current aviation weather report (METAR) for Adnan Menderes International Airport

Retrieved 2020/09/24 19:20 UTC (38 minutes ago):

LTBJ 241920Z VRB03KT CAVOK 22/20 Q1012 NOSIG

Aviation forecast (TAF) for Adnan Menderes International Airport

Retrieved 2020/09/24 18:03 UTC (2 hours ago):

TAF LTBJ 241640Z 2418/2518 VRB02KT CAVOK PROB30 2504/2507 4500 BR BECMG 2506/2509 FEW030 BECMG 2509/2512 35012KT BECMG 2515/2518 VRB02KT CAVOK